Utinga, Brazil
Current Conditions -  °F | °C
As of 7:00 PM on Thursday 27 Nov 2014 (Local Time) from SBPL Reporting Station
Clear Clear  
Wind Chill: 90°   Ceiling: Unl
Heat Index: 91°   Visibility: 6mi
Dew Point: 64°   Wind: 6mph
Humidity: 43%   Direction: 180°S
Pressure: 29.88"   Gusts: NA
Location:  12.08°S, 41.09°W
Report Text: SBPL 272200Z 18005KT CAVOK 32/18 Q1012
Loading
Personal Weather Stations






























Interactive Weather Map New forecast layout! Learn more

10-Day Weather Forecast

Advertisements
Track Severe Weather on mobile